Time;durP1;ratioP1;P1;durP2;ratioP2;P2;SDS_P1;SDS_P2;PMS_P1;PMS_P2;Temp;Humidity;BMP_temperature;BMP_pressure;BME280_temperature;BME280_humidity;BME280_pressure;Samples;Min_cycle;Max_cycle;Signal;HPM_P1;HPM_P2
2021/08/24 00:02:17;;;;;;;8.88;3.45;;;14.50;99.90;;;;;;5096501;28;20122;-65
2021/08/24 00:04:42;;;;;;;10.80;4.28;;;14.50;99.90;;;;;;5093724;27;20031;-65
2021/08/24 00:07:08;;;;;;;6.95;3.55;;;14.50;99.90;;;;;;5096391;28;20493;-65
2021/08/24 00:09:35;;;;;;;11.77;4.13;;;14.50;99.90;;;;;;5094457;28;20039;-65
2021/08/24 00:12:01;;;;;;;5.57;4.20;;;14.50;99.90;;;;;;5095695;28;20040;-65
2021/08/24 00:14:27;;;;;;;9.75;4.78;;;14.50;99.90;;;;;;5091664;28;20029;-65
2021/08/24 00:16:53;;;;;;;8.95;4.25;;;14.50;99.90;;;;;;5092447;28;20371;-65
2021/08/24 00:19:18;;;;;;;6.00;4.18;;;14.50;99.90;;;;;;5095597;28;20118;-65
2021/08/24 00:21:44;;;;;;;8.38;4.57;;;14.50;99.90;;;;;;5095730;28;20381;-65
2021/08/24 00:24:11;;;;;;;8.43;4.78;;;14.40;99.90;;;;;;5094301;28;20101;-65
2021/08/24 00:26:38;;;;;;;8.80;4.30;;;14.50;99.90;;;;;;5093277;27;20051;-65
2021/08/24 00:29:04;;;;;;;7.22;4.95;;;14.40;99.90;;;;;;5094045;28;20043;-68
2021/08/24 00:31:30;;;;;;;6.22;4.60;;;14.40;99.90;;;;;;5093635;28;20048;-65
2021/08/24 00:33:56;;;;;;;7.82;4.22;;;14.40;99.90;;;;;;5124652;27;20065;-65
2021/08/24 00:36:23;;;;;;;10.05;4.43;;;14.40;99.90;;;;;;5095165;28;20032;-65
2021/08/24 00:38:49;;;;;;;8.80;4.65;;;14.40;99.90;;;;;;5093558;28;20040;-65
2021/08/24 00:41:16;;;;;;;7.32;4.30;;;14.40;99.90;;;;;;5097576;28;20605;-65
2021/08/24 00:43:43;;;;;;;9.38;4.50;;;14.40;99.90;;;;;;5099084;28;20035;-65
2021/08/24 00:46:21;;;;;;;11.90;4.90;;;14.30;99.90;;;;;;5094912;28;20056;-65
2021/08/24 00:48:47;;;;;;;13.63;5.47;;;14.30;99.90;;;;;;5095535;28;20047;-65
2021/08/24 00:51:17;;;;;;;10.38;4.10;;;14.30;99.90;;;;;;5110957;27;20050;-65
2021/08/24 00:53:43;;;;;;;9.13;4.75;;;14.30;99.90;;;;;;5096345;28;20047;-65
2021/08/24 00:56:10;;;;;;;6.22;4.63;;;14.30;99.90;;;;;;5095922;28;20035;-65
2021/08/24 00:58:37;;;;;;;10.25;4.63;;;14.30;99.90;;;;;;5095878;28;20047;-65
2021/08/24 01:01:04;;;;;;;9.15;5.15;;;14.20;99.90;;;;;;5096574;28;20062;-65
2021/08/24 01:03:36;;;;;;;8.65;4.40;;;14.20;99.90;;;;;;5094874;28;20070;-65
2021/08/24 01:06:13;;;;;;;19.35;5.55;;;14.20;99.90;;;;;;5094579;28;20047;-65
2021/08/24 01:09:02;;;;;;;8.38;5.40;;;14.20;99.90;;;;;;5096214;28;20118;-66
2021/08/24 01:11:40;;;;;;;13.00;5.78;;;14.20;99.90;;;;;;5094058;28;20113;-66
2021/08/24 01:14:42;;;;;;;8.15;5.05;;;14.10;99.90;;;;;;5097406;28;20664;-65
2021/08/24 01:17:33;;;;;;;12.77;5.78;;;14.20;99.90;;;;;;5098462;28;20055;-65
2021/08/24 01:20:17;;;;;;;10.68;4.95;;;14.20;99.90;;;;;;5099443;28;20039;-65
2021/08/24 01:23:16;;;;;;;9.55;5.32;;;14.20;99.90;;;;;;5100736;28;20046;-65
2021/08/24 01:25:54;;;;;;;10.77;5.60;;;14.20;99.90;;;;;;5096201;27;20465;-65
2021/08/24 01:28:48;;;;;;;10.60;5.68;;;14.20;99.90;;;;;;5098634;27;20484;-65
2021/08/24 01:31:34;;;;;;;14.52;6.47;;;14.20;99.90;;;;;;5095344;27;20169;-66
2021/08/24 01:34:41;;;;;;;7.43;4.80;;;14.20;99.90;;;;;;5096463;28;20121;-66
2021/08/24 01:37:13;;;;;;;6.10;4.80;;;14.10;99.90;;;;;;5082916;28;20055;-66
2021/08/24 01:39:43;;;;;;;10.13;5.47;;;14.10;99.90;;;;;;5096259;28;20043;-65
2021/08/24 01:42:25;;;;;;;9.40;5.20;;;14.10;99.90;;;;;;5099223;27;20063;-65
2021/08/24 01:45:09;;;;;;;9.45;5.38;;;14.00;99.90;;;;;;5097416;27;20047;-66
2021/08/24 01:47:53;;;;;;;9.40;5.90;;;14.10;99.90;;;;;;5095614;27;20508;-66
2021/08/24 01:50:25;;;;;;;10.48;6.03;;;14.00;99.90;;;;;;5098506;28;20057;-66
2021/08/24 01:52:56;;;;;;;8.48;4.97;;;14.00;99.90;;;;;;5100070;27;20501;-65
2021/08/24 01:55:30;;;;;;;10.15;5.88;;;14.10;99.90;;;;;;5096085;27;20477;-66
2021/08/24 01:58:02;;;;;;;7.47;5.25;;;14.00;99.90;;;;;;5098020;28;20043;-66
2021/08/24 02:00:32;;;;;;;11.82;5.57;;;14.00;99.90;;;;;;5096136;28;20035;-65
2021/08/24 02:03:08;;;;;;;8.23;5.38;;;14.10;99.90;;;;;;5095388;27;20130;-65
2021/08/24 02:05:41;;;;;;;9.05;4.97;;;14.10;99.90;;;;;;5095330;27;20050;-66
2021/08/24 02:08:13;;;;;;;9.85;5.55;;;14.10;99.90;;;;;;5109681;27;20194;-66
2021/08/24 02:10:41;;;;;;;9.80;5.47;;;14.10;99.90;;;;;;5110309;27;20378;-66
2021/08/24 02:13:08;;;;;;;10.90;6.63;;;14.00;99.90;;;;;;5109296;27;20043;-66
2021/08/24 02:15:40;;;;;;;13.48;6.13;;;14.10;99.90;;;;;;5103815;27;20436;-66
2021/08/24 02:18:09;;;;;;;11.02;5.93;;;14.00;99.90;;;;;;5111938;27;20039;-66
2021/08/24 02:20:53;;;;;;;12.65;6.03;;;14.10;99.90;;;;;;5107631;27;20040;-66
2021/08/24 02:23:23;;;;;;;18.17;7.47;;;14.00;99.90;;;;;;5112018;27;20034;-66
2021/08/24 02:25:56;;;;;;;9.90;6.90;;;14.00;99.90;;;;;;5101133;27;20044;-66
2021/08/24 02:28:39;;;;;;;11.57;5.70;;;14.00;99.90;;;;;;5107356;27;20036;-66
2021/08/24 02:31:22;;;;;;;10.30;6.68;;;14.00;99.90;;;;;;5110409;27;20595;-66
2021/08/24 02:33:55;;;;;;;13.93;6.05;;;14.00;99.90;;;;;;5110871;27;20026;-66
2021/08/24 02:36:22;;;;;;;12.82;6.22;;;14.00;99.90;;;;;;5108145;27;20044;-66
2021/08/24 02:39:05;;;;;;;12.38;6.13;;;14.00;99.90;;;;;;5107617;27;20043;-65
2021/08/24 02:41:39;;;;;;;10.68;5.60;;;14.00;99.90;;;;;;5108892;27;20453;-66
2021/08/24 02:44:20;;;;;;;11.30;6.22;;;14.00;99.90;;;;;;5136118;27;20058;-66
2021/08/24 02:46:49;;;;;;;9.13;6.15;;;14.00;99.90;;;;;;5108006;27;20044;-66
2021/08/24 02:49:25;;;;;;;9.90;6.38;;;14.00;99.90;;;;;;5110510;27;20043;-66
2021/08/24 02:51:52;;;;;;;9.88;5.45;;;14.00;99.90;;;;;;5108648;27;20104;-66
2021/08/24 02:54:31;;;;;;;7.85;6.50;;;14.00;99.90;;;;;;5111482;27;20054;-66
2021/08/24 02:57:00;;;;;;;10.63;6.90;;;14.00;99.90;;;;;;5111335;27;20035;-66
2021/08/24 02:59:26;;;;;;;6.43;5.43;;;13.90;99.90;;;;;;5105288;27;20044;-66
2021/08/24 03:01:51;;;;;;;9.05;5.60;;;13.90;99.90;;;;;;5104263;27;20035;-66
2021/08/24 03:04:17;;;;;;;12.18;5.85;;;13.90;99.90;;;;;;5105889;27;20084;-66
2021/08/24 03:06:46;;;;;;;7.43;5.32;;;13.90;99.90;;;;;;5107373;27;20039;-66
2021/08/24 03:09:14;;;;;;;6.55;5.15;;;14.00;99.90;;;;;;5107224;27;20066;-66
2021/08/24 03:11:54;;;;;;;12.27;6.28;;;13.90;99.90;;;;;;5102907;27;20059;-66
2021/08/24 03:14:31;;;;;;;6.57;5.57;;;13.90;99.90;;;;;;5113743;27;20039;-66
2021/08/24 03:17:04;;;;;;;12.18;5.25;;;13.90;99.90;;;;;;5105854;27;20040;-66
2021/08/24 03:19:33;;;;;;;11.10;6.40;;;13.90;99.90;;;;;;5139652;27;20074;-66
2021/08/24 03:22:00;;;;;;;11.45;5.65;;;13.90;99.90;;;;;;5108187;27;20039;-66
2021/08/24 03:24:28;;;;;;;6.68;4.85;;;13.90;99.90;;;;;;5105995;27;20063;-66
2021/08/24 03:26:53;;;;;;;12.00;5.53;;;13.80;99.90;;;;;;5104886;28;20453;-65
2021/08/24 03:29:21;;;;;;;9.82;5.75;;;13.90;99.90;;;;;;5102718;28;20134;-66
2021/08/24 03:31:54;;;;;;;8.52;5.63;;;13.90;99.90;;;;;;5102394;28;20081;-66
2021/08/24 03:34:20;;;;;;;8.98;6.38;;;13.80;99.90;;;;;;5102294;28;20036;-66
2021/08/24 03:36:46;;;;;;;8.20;5.75;;;13.80;99.90;;;;;;5101778;27;20088;-65
2021/08/24 03:39:12;;;;;;;10.63;6.00;;;13.70;99.90;;;;;;5104098;27;20085;-66
2021/08/24 03:41:37;;;;;;;9.52;6.20;;;13.70;99.90;;;;;;5097435;28;20416;-66
2021/08/24 03:44:03;;;;;;;8.55;4.88;;;13.70;99.90;;;;;;5103782;28;20425;-66
2021/08/24 03:46:29;;;;;;;9.43;5.45;;;13.70;99.90;;;;;;5102160;28;20050;-66
2021/08/24 03:48:55;;;;;;;9.10;5.50;;;13.70;99.90;;;;;;5098585;27;20101;-66
2021/08/24 03:51:20;;;;;;;9.77;5.57;;;13.70;99.90;;;;;;5129090;27;20076;-66
2021/08/24 03:53:46;;;;;;;9.00;5.60;;;13.70;99.90;;;;;;5129619;27;20058;-66
2021/08/24 03:56:12;;;;;;;8.18;5.40;;;13.70;99.90;;;;;;5102364;28;20032;-66
2021/08/24 03:58:38;;;;;;;7.28;5.50;;;13.60;99.90;;;;;;5103957;27;20438;-66
2021/08/24 04:01:11;;;;;;;6.43;5.32;;;13.60;99.90;;;;;;5104433;27;20481;-65
2021/08/24 04:03:37;;;;;;;7.95;5.57;;;13.60;99.90;;;;;;5129366;27;20047;-66
2021/08/24 04:06:03;;;;;;;11.25;5.65;;;13.60;99.90;;;;;;5097849;28;20408;-66
2021/08/24 04:08:29;;;;;;;10.10;5.88;;;13.70;99.90;;;;;;5103321;28;20040;-66
2021/08/24 04:10:55;;;;;;;9.07;5.68;;;13.60;99.90;;;;;;5097599;28;20040;-66
2021/08/24 04:13:21;;;;;;;9.85;5.32;;;13.60;99.90;;;;;;5105486;28;20096;-66
2021/08/24 04:15:47;;;;;;;7.32;5.97;;;13.60;99.90;;;;;;5105229;28;20028;-66
2021/08/24 04:18:13;;;;;;;10.27;6.25;;;13.60;99.90;;;;;;5102472;28;20458;-66
2021/08/24 04:20:40;;;;;;;10.35;4.90;;;13.60;99.90;;;;;;5100151;28;20066;-66
2021/08/24 04:23:07;;;;;;;10.75;5.82;;;13.60;99.90;;;;;;5084790;28;20048;-66
2021/08/24 04:25:32;;;;;;;12.05;5.03;;;13.60;99.90;;;;;;5102459;28;20086;-66
2021/08/24 04:27:58;;;;;;;8.15;5.40;;;13.60;99.90;;;;;;5097873;28;20071;-66
2021/08/24 04:30:24;;;;;;;8.57;4.40;;;13.50;99.90;;;;;;5100308;28;20050;-66
2021/08/24 04:32:49;;;;;;;10.98;5.47;;;13.60;99.90;;;;;;5102813;28;20036;-66
2021/08/24 04:35:18;;;;;;;9.35;5.10;;;13.60;99.90;;;;;;5100139;28;20047;-66
2021/08/24 04:37:44;;;;;;;8.20;4.93;;;13.60;99.90;;;;;;5102949;28;20040;-66
2021/08/24 04:40:11;;;;;;;9.68;4.65;;;13.60;99.90;;;;;;5095062;28;20054;-66
2021/08/24 04:42:37;;;;;;;7.80;5.43;;;13.60;99.90;;;;;;5099472;28;20397;-66
2021/08/24 04:45:04;;;;;;;9.55;5.22;;;13.60;99.90;;;;;;5103072;28;20096;-66
2021/08/24 04:47:29;;;;;;;10.15;4.93;;;13.70;99.90;;;;;;5102933;28;20668;-66
2021/08/24 04:49:55;;;;;;;10.80;5.70;;;13.70;99.90;;;;;;5105388;27;20044;-66
2021/08/24 04:52:21;;;;;;;8.82;5.57;;;13.70;99.90;;;;;;5134696;27;21993;-66
2021/08/24 04:54:46;;;;;;;14.00;5.60;;;13.70;99.90;;;;;;5106515;28;20031;-66
2021/08/24 04:57:12;;;;;;;11.10;5.57;;;13.70;99.90;;;;;;5104551;27;20088;-66
2021/08/24 04:59:37;;;;;;;6.57;5.20;;;13.70;99.90;;;;;;5113271;27;20439;-66
2021/08/24 05:02:03;;;;;;;8.52;5.15;;;13.80;99.90;;;;;;5110487;27;20553;-65
2021/08/24 05:04:29;;;;;;;11.38;5.70;;;13.80;99.90;;;;;;5102371;28;20073;-66
2021/08/24 05:06:54;;;;;;;11.02;5.55;;;13.80;99.90;;;;;;5106074;27;20039;-66
2021/08/24 05:09:21;;;;;;;9.38;6.03;;;13.90;99.90;;;;;;5102860;27;20089;-66
2021/08/24 05:11:47;;;;;;;8.02;4.50;;;14.00;99.90;;;;;;5108816;27;20041;-66
2021/08/24 05:14:13;;;;;;;7.15;4.80;;;14.00;99.90;;;;;;5100110;28;20028;-66
2021/08/24 05:16:40;;;;;;;7.18;4.57;;;14.00;99.90;;;;;;5098464;28;20115;-66
2021/08/24 05:19:06;;;;;;;7.85;4.72;;;14.10;99.90;;;;;;5100276;27;20044;-66
2021/08/24 05:21:34;;;;;;;10.38;4.88;;;14.10;99.90;;;;;;5099537;27;20382;-66
2021/08/24 05:24:00;;;;;;;7.32;4.55;;;14.20;99.90;;;;;;5097457;27;20053;-66
2021/08/24 05:26:26;;;;;;;7.85;5.20;;;14.40;99.90;;;;;;5076980;28;20043;-66
2021/08/24 05:28:51;;;;;;;10.45;4.20;;;14.60;99.90;;;;;;5100772;28;20405;-66
2021/08/24 05:31:17;;;;;;;6.97;3.80;;;15.00;99.90;;;;;;5097136;28;20032;-66
2021/08/24 05:33:43;;;;;;;7.20;2.80;;;15.80;99.90;;;;;;5098933;27;20156;-66
2021/08/24 05:36:11;;;;;;;5.50;3.38;;;16.80;99.90;;;;;;5102628;27;20068;-66
2021/08/24 05:38:36;;;;;;;4.68;2.50;;;17.90;99.90;;;;;;5101637;27;20039;-66
2021/08/24 05:41:03;;;;;;;9.07;3.15;;;18.80;99.90;;;;;;5100973;28;20032;-66
2021/08/24 05:43:29;;;;;;;4.05;2.20;;;19.60;99.90;;;;;;5106641;28;20038;-66
2021/08/24 05:46:02;;;;;;;5.82;2.15;;;20.40;99.90;;;;;;5102648;27;20481;-66
2021/08/24 05:48:28;;;;;;;3.70;2.10;;;21.10;99.90;;;;;;5103546;27;20048;-66
2021/08/24 05:50:54;;;;;;;3.75;2.08;;;21.50;99.90;;;;;;5097345;28;20036;-66
2021/08/24 05:53:20;;;;;;;5.68;1.90;;;22.20;99.90;;;;;;5095927;28;20044;-66
2021/08/24 05:55:46;;;;;;;3.75;2.17;;;22.80;99.90;;;;;;5099540;27;20554;-66
2021/08/24 05:58:12;;;;;;;6.07;2.13;;;23.30;99.90;;;;;;5099444;28;20043;-67
2021/08/24 06:00:38;;;;;;;6.13;1.92;;;23.60;99.90;;;;;;5091844;28;20044;-66
2021/08/24 06:03:06;;;;;;;4.88;2.00;;;24.30;99.90;;;;;;5092291;28;20715;-67
2021/08/24 06:05:32;;;;;;;6.05;2.28;;;24.70;99.90;;;;;;5094989;28;20040;-67
2021/08/24 06:07:57;;;;;;;4.93;1.88;;;25.10;99.90;;;;;;5095452;28;20039;-66
2021/08/24 06:10:23;;;;;;;5.15;2.22;;;25.60;99.50;;;;;;5095161;27;20043;-66
2021/08/24 06:12:49;;;;;;;7.13;2.35;;;25.80;98.00;;;;;;5094258;28;20043;-67
2021/08/24 06:15:14;;;;;;;4.10;2.03;;;26.20;95.80;;;;;;5096083;28;20032;-67
2021/08/24 06:17:41;;;;;;;6.00;3.08;;;26.70;93.90;;;;;;5107429;27;20414;-67
2021/08/24 06:20:08;;;;;;;4.68;1.85;;;27.10;91.50;;;;;;5091923;27;20038;-67
2021/08/24 06:22:35;;;;;;;4.70;1.95;;;27.30;91.00;;;;;;5092688;27;20137;-67
2021/08/24 06:25:01;;;;;;;3.88;1.92;;;27.50;89.70;;;;;;5078923;28;20579;-67
2021/08/24 06:27:27;;;;;;;6.25;2.53;;;27.70;88.50;;;;;;5094016;28;20040;-67
2021/08/24 06:29:53;;;;;;;5.88;1.92;;;28.00;87.30;;;;;;5097093;28;20051;-67
2021/08/24 06:32:31;;;;;;;4.97;1.80;;;28.20;83.50;;;;;;5093973;28;20105;-67
2021/08/24 06:34:57;;;;;;;5.45;2.22;;;28.50;78.80;;;;;;5095373;28;20050;-67
2021/08/24 06:37:23;;;;;;;5.18;1.92;;;28.50;78.50;;;;;;5096754;28;20042;-66
2021/08/24 06:39:49;;;;;;;4.85;2.22;;;27.90;79.20;;;;;;5098334;28;20039;-67
2021/08/24 06:42:14;;;;;;;6.25;2.17;;;27.00;83.10;;;;;;5094614;28;20064;-66
2021/08/24 06:44:40;;;;;;;4.03;1.80;;;25.90;89.10;;;;;;5096644;28;20036;-67
2021/08/24 06:47:05;;;;;;;3.33;1.77;;;25.10;93.90;;;;;;5094473;28;20115;-67
2021/08/24 06:49:31;;;;;;;8.25;2.83;;;25.00;97.50;;;;;;5097335;28;20051;-67
2021/08/24 06:51:59;;;;;;;4.78;1.95;;;25.10;96.90;;;;;;5096918;27;20087;-66
2021/08/24 06:54:26;;;;;;;4.88;2.22;;;25.00;97.10;;;;;;5129730;27;20505;-66
2021/08/24 06:56:52;;;;;;;6.88;2.30;;;24.50;98.30;;;;;;5096488;28;20043;-66
2021/08/24 06:59:18;;;;;;;7.68;2.17;;;24.10;99.90;;;;;;5093928;28;20462;-66
2021/08/24 07:01:44;;;;;;;6.22;2.28;;;23.50;99.90;;;;;;5094992;28;20040;-67
2021/08/24 07:04:09;;;;;;;5.55;2.40;;;23.10;99.90;;;;;;5094786;27;20050;-66
2021/08/24 07:06:36;;;;;;;5.38;2.33;;;22.60;99.90;;;;;;5091348;28;20040;-66
2021/08/24 07:09:03;;;;;;;7.30;2.47;;;22.30;99.90;;;;;;5094082;28;20203;-66
2021/08/24 07:11:29;;;;;;;6.80;2.65;;;22.10;99.90;;;;;;5093063;28;20044;-66
2021/08/24 07:13:57;;;;;;;5.05;2.13;;;21.80;99.90;;;;;;5093862;28;20044;-66
2021/08/24 07:16:24;;;;;;;4.55;2.40;;;21.60;99.90;;;;;;5091657;28;20710;-66
2021/08/24 07:18:55;;;;;;;6.25;2.28;;;21.50;99.90;;;;;;5107293;27;21224;-66
2021/08/24 07:21:22;;;;;;;6.22;2.17;;;21.50;99.90;;;;;;5106882;27;20063;-66
2021/08/24 07:23:48;;;;;;;6.40;2.28;;;21.60;99.90;;;;;;5093970;28;20046;-66
2021/08/24 07:26:16;;;;;;;8.45;2.22;;;21.70;99.90;;;;;;5095907;28;20073;-66
2021/08/24 07:28:42;;;;;;;6.13;2.10;;;21.60;99.90;;;;;;5097767;28;20067;-66
2021/08/24 07:31:08;;;;;;;5.70;2.15;;;21.60;99.90;;;;;;5098139;28;20179;-66
2021/08/24 07:33:34;;;;;;;5.05;2.13;;;21.50;99.90;;;;;;5101161;27;20071;-66
2021/08/24 07:36:00;;;;;;;6.97;2.22;;;21.30;99.90;;;;;;5098508;28;20028;-66
2021/08/24 07:38:26;;;;;;;5.75;1.73;;;21.30;99.90;;;;;;5097081;28;20048;-66
2021/08/24 07:40:52;;;;;;;5.80;1.88;;;21.20;99.90;;;;;;5100567;28;20122;-66
2021/08/24 07:43:18;;;;;;;8.35;2.65;;;21.30;99.90;;;;;;5099698;28;20028;-66
2021/08/24 07:45:45;;;;;;;6.25;2.00;;;21.30;99.90;;;;;;5098167;27;20059;-66
2021/08/24 07:48:10;;;;;;;5.88;1.65;;;21.30;99.90;;;;;;5102394;28;20039;-66
2021/08/24 07:50:36;;;;;;;4.97;1.83;;;21.20;99.90;;;;;;5100793;27;20042;-66
2021/08/24 07:53:03;;;;;;;8.07;2.33;;;21.30;99.90;;;;;;5103141;28;20043;-66
2021/08/24 07:55:29;;;;;;;8.38;1.98;;;21.20;99.90;;;;;;5100921;28;20042;-66
2021/08/24 07:57:55;;;;;;;4.28;1.70;;;21.20;99.90;;;;;;5101277;28;20048;-66
2021/08/24 08:00:21;;;;;;;9.15;1.90;;;21.20;99.90;;;;;;5099883;28;20063;-66
2021/08/24 08:02:46;;;;;;;6.20;1.75;;;21.30;99.90;;;;;;5101450;28;20055;-66
2021/08/24 08:05:13;;;;;;;4.35;1.88;;;21.50;99.90;;;;;;5102630;28;20122;-66
2021/08/24 08:07:39;;;;;;;7.82;1.83;;;21.60;99.90;;;;;;5103812;28;20080;-66
2021/08/24 08:10:05;;;;;;;9.25;2.22;;;21.60;99.90;;;;;;5128347;27;20115;-66
2021/08/24 08:12:31;;;;;;;9.88;2.03;;;21.60;99.90;;;;;;5106307;28;20039;-67
2021/08/24 08:14:57;;;;;;;5.75;1.73;;;21.50;99.90;;;;;;5102617;28;20034;-66
2021/08/24 08:17:22;;;;;;;6.57;1.85;;;21.50;99.90;;;;;;5103397;28;20067;-66
2021/08/24 08:19:48;;;;;;;4.97;1.83;;;21.80;99.90;;;;;;5099690;28;20031;-67
2021/08/24 08:22:14;;;;;;;8.20;2.42;;;21.90;99.90;;;;;;5098793;28;20625;-67
2021/08/24 08:24:39;;;;;;;4.43;1.70;;;22.10;99.90;;;;;;5097714;28;20143;-67
2021/08/24 08:27:05;;;;;;;5.25;1.45;;;22.30;99.90;;;;;;5090569;28;20050;-66
2021/08/24 08:29:31;;;;;;;6.82;1.88;;;22.30;99.90;;;;;;5105672;28;20148;-67
2021/08/24 08:32:04;;;;;;;5.55;1.50;;;22.50;99.90;;;;;;5106285;27;20043;-66
2021/08/24 08:34:30;;;;;;;7.30;1.90;;;22.20;99.90;;;;;;5105721;28;20109;-66
2021/08/24 08:36:55;;;;;;;6.97;2.60;;;22.30;99.90;;;;;;5104617;27;20083;-66
2021/08/24 08:39:21;;;;;;;6.57;1.80;;;22.30;99.90;;;;;;5100898;28;20036;-66
2021/08/24 08:42:22;;;;;;;5.82;1.85;;;22.00;99.90;;;;;;5100422;28;20043;-66
2021/08/24 08:44:56;;;;;;;4.00;1.60;;;21.90;99.90;;;;;;5106387;28;20139;-67
2021/08/24 08:47:21;;;;;;;7.18;1.88;;;21.60;99.90;;;;;;5103012;28;20035;-66
2021/08/24 08:49:54;;;;;;;5.30;1.70;;;21.50;99.90;;;;;;5106500;27;20047;-66
2021/08/24 08:52:40;;;;;;;5.13;2.35;;;21.20;99.90;;;;;;5107234;28;20032;-66
2021/08/24 08:55:28;;;;;;;6.05;1.88;;;21.10;99.90;;;;;;5102226;28;20453;-66
2021/08/24 08:58:07;;;;;;;5.88;2.03;;;20.90;99.90;;;;;;5105079;28;20050;-66
2021/08/24 09:00:56;;;;;;;4.50;1.90;;;20.80;99.90;;;;;;5105915;28;20035;-66
2021/08/24 09:03:41;;;;;;;6.93;2.08;;;21.00;99.90;;;;;;5104284;28;20119;-66
2021/08/24 09:06:09;;;;;;;3.07;1.60;;;21.40;99.90;;;;;;5103825;28;20036;-66
2021/08/24 09:08:35;;;;;;;2.92;1.48;;;21.70;99.90;;;;;;5103213;27;20338;-66
2021/08/24 09:11:01;;;;;;;4.63;1.90;;;22.00;99.90;;;;;;5099920;28;20039;-66
2021/08/24 09:13:43;;;;;;;4.18;1.83;;;22.20;99.90;;;;;;5107150;27;20390;-66
2021/08/24 09:16:28;;;;;;;6.18;2.45;;;22.20;99.90;;;;;;5135446;27;20031;-66
2021/08/24 09:19:12;;;;;;;5.43;2.08;;;22.30;99.90;;;;;;5099927;28;20424;-66
2021/08/24 09:21:41;;;;;;;4.63;1.98;;;22.50;99.90;;;;;;5107256;28;20040;-66
2021/08/24 09:24:20;;;;;;;6.40;1.77;;;22.60;99.90;;;;;;5103139;27;20048;-66
2021/08/24 09:26:46;;;;;;;4.45;1.48;;;22.70;99.90;;;;;;5103231;28;20043;-66
2021/08/24 09:29:12;;;;;;;8.35;1.40;;;22.90;99.90;;;;;;5103587;28;20044;-66
2021/08/24 09:31:41;;;;;;;5.28;2.40;;;22.70;99.90;;;;;;5133003;27;20046;-66
2021/08/24 09:34:10;;;;;;;8.35;1.88;;;22.80;99.90;;;;;;5111627;27;20362;-66
2021/08/24 09:36:36;;;;;;;5.55;2.05;;;22.80;99.90;;;;;;5102781;28;20144;-66
2021/08/24 09:39:03;;;;;;;3.67;1.70;;;22.80;99.90;;;;;;5100916;27;20073;-66
2021/08/24 09:41:34;;;;;;;3.72;1.50;;;22.80;99.90;;;;;;5100881;28;20046;-66
2021/08/24 09:44:33;;;;;;;7.88;2.17;;;22.60;99.90;;;;;;5101958;28;20044;-66
2021/08/24 09:47:17;;;;;;;4.50;2.15;;;22.10;99.90;;;;;;5082112;28;20119;-66
2021/08/24 09:49:44;;;;;;;5.50;1.67;;;22.20;99.90;;;;;;5101609;28;20035;-66
2021/08/24 09:52:22;;;;;;;7.05;2.00;;;22.10;99.90;;;;;;5104312;28;20032;-66
2021/08/24 09:54:53;;;;;;;9.25;1.65;;;22.10;99.90;;;;;;5098261;28;20044;-66
2021/08/24 09:57:32;;;;;;;4.55;1.48;;;22.00;99.90;;;;;;5103834;28;20039;-66
2021/08/24 10:00:25;;;;;;;5.25;1.67;;;21.90;99.90;;;;;;5104180;27;20071;-66
2021/08/24 10:02:57;;;;;;;5.32;1.90;;;21.90;99.90;;;;;;5102599;27;20146;-66
2021/08/24 10:05:23;;;;;;;5.30;1.75;;;22.10;99.90;;;;;;5103204;27;20214;-66
2021/08/24 10:07:51;;;;;;;4.72;2.00;;;22.20;99.90;;;;;;5100666;27;20136;-67
2021/08/24 10:10:29;;;;;;;7.28;1.83;;;22.30;99.90;;;;;;5101039;27;20044;-66
2021/08/24 10:12:58;;;;;;;3.47;1.67;;;22.60;99.90;;;;;;5099639;28;20494;-67
2021/08/24 10:15:30;;;;;;;7.47;2.67;;;22.40;99.90;;;;;;5104022;27;20036;-66
2021/08/24 10:18:23;;;;;;;4.63;1.58;;;22.30;99.90;;;;;;5096737;27;20051;-66
2021/08/24 10:20:49;;;;;;;2.95;1.77;;;22.10;99.90;;;;;;5095174;27;20040;-66
2021/08/24 10:23:23;;;;;;;5.40;1.88;;;22.10;99.90;;;;;;5103806;27;20417;-66
2021/08/24 10:25:55;;;;;;;3.47;1.35;;;22.10;99.90;;;;;;5104343;27;20047;-66
2021/08/24 10:28:28;;;;;;;5.65;1.70;;;22.20;99.90;;;;;;5134960;27;20070;-67
2021/08/24 10:31:00;;;;;;;4.00;2.17;;;22.30;99.90;;;;;;5130456;27;20078;-66
2021/08/24 10:33:33;;;;;;;4.07;1.90;;;22.40;99.90;;;;;;5104437;27;20054;-66
2021/08/24 10:36:13;;;;;;;5.25;1.73;;;22.70;99.90;;;;;;5097646;28;20104;-67
2021/08/24 10:38:54;;;;;;;2.42;1.42;;;22.70;99.90;;;;;;5103350;28;20087;-67
2021/08/24 10:41:31;;;;;;;4.72;2.05;;;22.80;99.90;;;;;;5132952;27;20040;-66
2021/08/24 10:44:00;;;;;;;3.67;1.80;;;23.00;99.90;;;;;;5102995;27;20044;-66
2021/08/24 10:46:26;;;;;;;6.45;1.55;;;23.20;99.90;;;;;;5106591;27;20096;-67
2021/08/24 10:48:53;;;;;;;3.58;1.75;;;23.30;99.90;;;;;;5103591;27;20043;-67
2021/08/24 10:51:33;;;;;;;3.13;1.52;;;23.30;99.90;;;;;;5102377;28;20042;-67
2021/08/24 10:54:37;;;;;;;4.72;2.10;;;23.10;99.90;;;;;;5102907;27;20911;-67
2021/08/24 10:57:24;;;;;;;4.53;1.52;;;22.80;99.90;;;;;;5094109;28;20374;-67
2021/08/24 10:59:58;;;;;;;4.10;2.05;;;22.60;99.90;;;;;;5128849;27;20417;-67
2021/08/24 11:02:36;;;;;;;3.33;1.60;;;22.60;99.90;;;;;;5101119;27;20405;-66
2021/08/24 11:05:26;;;;;;;2.78;1.50;;;22.60;99.90;;;;;;5102398;28;20552;-67
2021/08/24 11:08:10;;;;;;;4.38;1.17;;;22.40;99.90;;;;;;5104122;28;20036;-66
2021/08/24 11:10:56;;;;;;;3.67;1.52;;;22.40;99.90;;;;;;5098147;27;20428;-66
2021/08/24 11:13:36;;;;;;;3.35;1.67;;;22.20;97.30;;;;;;5102391;28;20047;-66
2021/08/24 11:16:26;;;;;;;3.67;1.17;;;22.10;99.90;;;;;;5101653;28;20049;-67
2021/08/24 11:19:03;;;;;;;4.75;1.90;;;22.50;99.90;;;;;;5100430;28;20039;-67
2021/08/24 11:21:46;;;;;;;3.40;1.30;;;22.80;99.90;;;;;;5104255;28;20048;-67
2021/08/24 11:24:31;;;;;;;7.50;1.92;;;22.80;98.70;;;;;;5099635;28;20048;-67
2021/08/24 11:27:21;;;;;;;2.60;1.20;;;22.30;95.70;;;;;;5102030;27;20090;-67
2021/08/24 11:29:55;;;;;;;2.53;1.17;;;22.30;99.90;;;;;;5105625;27;20281;-67
2021/08/24 11:32:41;;;;;;;2.05;1.40;;;22.50;99.90;;;;;;5103287;27;20376;-67
2021/08/24 11:35:17;;;;;;;;;;;22.50;95.50;;;;;;5103746;28;20497;-67
2021/08/24 11:38:15;;;;;;;5.43;1.40;;;22.40;99.90;;;;;;5101650;28;19916;-67
2021/08/24 11:41:05;;;;;;;3.30;1.45;;;22.40;99.90;;;;;;5097155;27;20047;-66
2021/08/24 11:44:09;;;;;;;6.60;1.67;;;22.60;99.90;;;;;;5103764;28;20103;-66
2021/08/24 11:46:45;;;;;;;4.93;1.65;;;22.80;99.90;;;;;;5099072;28;20154;-66
2021/08/24 11:49:35;;;;;;;3.42;1.55;;;22.80;99.90;;;;;;5130120;27;20069;-67
2021/08/24 11:52:08;;;;;;;3.33;1.60;;;22.60;99.20;;;;;;5097426;28;20047;-66
2021/08/24 11:54:51;;;;;;;5.63;1.45;;;22.60;99.90;;;;;;5100076;28;20112;-67
2021/08/24 11:57:37;;;;;;;2.88;1.65;;;22.70;99.90;;;;;;5103692;27;20067;-67
2021/08/24 12:00:04;;;;;;;;;;;22.80;96.10;;;;;;5102165;28;20051;-67
2021/08/24 12:02:39;;;;;;;4.88;1.30;;;22.90;99.30;;;;;;5082666;28;19919;-67
2021/08/24 12:05:12;;;;;;;4.07;1.65;;;23.00;99.90;;;;;;5099096;28;20043;-66
2021/08/24 12:07:40;;;;;;;3.92;1.48;;;23.20;98.50;;;;;;5099279;28;20042;-67
2021/08/24 12:10:26;;;;;;;4.15;1.80;;;23.10;95.70;;;;;;5099922;28;20051;-67
2021/08/24 12:12:59;;;;;;;2.88;1.38;;;23.00;97.30;;;;;;5086383;28;20170;-67
2021/08/24 12:15:44;;;;;;;2.33;1.50;;;22.90;97.40;;;;;;5100722;28;20036;-67
2021/08/24 12:18:30;;;;;;;2.90;1.23;;;23.10;96.00;;;;;;5099649;28;20047;-67
2021/08/24 12:21:28;;;;;;;2.35;1.27;;;22.90;94.80;;;;;;5099700;28;20412;-66
2021/08/24 12:23:54;;;;;;;6.50;2.05;;;23.00;94.70;;;;;;5104670;28;20046;-66
2021/08/24 12:26:22;;;;;;;3.58;1.70;;;22.80;91.40;;;;;;5104292;28;21240;-66
2021/08/24 12:28:48;;;;;;;2.92;1.42;;;23.00;94.80;;;;;;5104928;28;20063;-67
2021/08/24 12:31:37;;;;;;;3.53;1.73;;;23.10;96.30;;;;;;5102296;28;20047;-66
2021/08/24 12:34:34;;;;;;;2.10;1.30;;;23.10;93.10;;;;;;5099856;28;20089;-66
2021/08/24 12:37:18;;;;;;;4.60;1.48;;;23.20;93.70;;;;;;5125054;27;20044;-66
2021/08/24 12:39:57;;;;;;;5.97;1.45;;;23.20;95.70;;;;;;5101079;28;20035;-66
2021/08/24 12:42:22;;;;;;;2.47;1.50;;;23.00;87.70;;;;;;5100932;28;20047;-66
2021/08/24 12:44:57;;;;;;;3.55;1.38;;;23.00;94.10;;;;;;5101620;28;20564;-67
2021/08/24 12:47:30;;;;;;;2.70;1.67;;;22.90;91.50;;;;;;5100309;28;20036;-66
2021/08/24 12:50:15;;;;;;;2.92;1.10;;;22.90;94.30;;;;;;5101327;28;20055;-66
2021/08/24 12:52:46;;;;;;;2.95;1.58;;;23.10;95.60;;;;;;5098869;28;20109;-67
2021/08/24 12:55:30;;;;;;;3.90;1.58;;;23.10;94.30;;;;;;5102943;28;20048;-66
2021/08/24 12:58:24;;;;;;;4.13;2.17;;;23.10;92.00;;;;;;5100368;28;20086;-66
2021/08/24 13:01:14;;;;;;;1.92;1.50;;;22.90;85.70;;;;;;5089165;28;20051;-66
2021/08/24 13:04:13;;;;;;;2.25;1.30;;;22.90;91.30;;;;;;5101170;28;20035;-67
2021/08/24 13:06:42;;;;;;;3.45;1.50;;;22.70;88.80;;;;;;5070714;28;20402;-66
2021/08/24 13:09:22;;;;;;;3.05;2.00;;;22.60;87.10;;;;;;5095456;28;21793;-66
2021/08/24 13:12:16;;;;;;;4.13;1.60;;;22.80;91.90;;;;;;5104755;27;20087;-66